sensor_id;sensor_type;location;lat;lon;timestamp;pressure;altitude;pressure_sealevel;temperature;humidity
39141;BME280;24875;48.436;10.298;2023-03-14T15:33:50;95027.16;;;9.65;64.15
39141;BME280;24875;48.436;10.298;2023-03-14T15:36:21;95043.06;;;9.24;65.50
39141;BME280;24875;48.436;10.298;2023-03-14T15:38:49;95052.56;;;9.19;67.72
39141;BME280;24875;48.436;10.298;2023-03-14T15:41:16;95046.22;;;9.01;68.50
39141;BME280;24875;48.436;10.298;2023-03-14T15:43:42;95058.16;;;9.09;69.51
39141;BME280;24875;48.436;10.298;2023-03-14T15:46:09;95059.25;;;10.13;65.30
39141;BME280;24875;48.436;10.298;2023-03-14T15:48:36;95050.13;;;11.04;61.98
39141;BME280;24875;48.436;10.298;2023-03-14T15:51:04;95071.97;;;10.10;63.16
39141;BME280;24875;48.436;10.298;2023-03-14T15:53:30;95068.72;;;9.22;63.36
39141;BME280;24875;48.436;10.298;2023-03-14T15:55:57;95115.28;;;8.95;65.59
39141;BME280;24875;48.436;10.298;2023-03-14T15:58:24;95104.66;;;8.75;61.84
39141;BME280;24875;48.436;10.298;2023-03-14T16:00:50;95107.28;;;8.75;61.58
39141;BME280;24875;48.436;10.298;2023-03-14T16:03:17;95111.31;;;8.71;62.38
39141;BME280;24875;48.436;10.298;2023-03-14T16:05:44;95123.84;;;8.69;62.72
39141;BME280;24875;48.436;10.298;2023-03-14T16:08:11;95122.41;;;8.67;61.89
39141;BME280;24875;48.436;10.298;2023-03-14T16:10:38;95131.25;;;8.59;62.99
39141;BME280;24875;48.436;10.298;2023-03-14T16:13:05;95132.59;;;8.49;62.04
39141;BME280;24875;48.436;10.298;2023-03-14T16:15:31;95134.97;;;8.44;62.12
39141;BME280;24875;48.436;10.298;2023-03-14T16:17:58;95137.84;;;8.49;61.65
39141;BME280;24875;48.436;10.298;2023-03-14T16:20:24;95140.09;;;8.86;62.58
39141;BME280;24875;48.436;10.298;2023-03-14T16:22:52;95128.84;;;9.32;63.35
39141;BME280;24875;48.436;10.298;2023-03-14T16:25:20;95133.00;;;9.20;62.72
39141;BME280;24875;48.436;10.298;2023-03-14T16:27:47;95143.25;;;9.08;62.10
39141;BME280;24875;48.436;10.298;2023-03-14T16:30:14;95129.09;;;10.35;58.82
39141;BME280;24875;48.436;10.298;2023-03-14T16:32:40;95139.44;;;10.56;58.29
39141;BME280;24875;48.436;10.298;2023-03-14T16:35:07;95146.66;;;9.96;59.35
39141;BME280;24875;48.436;10.298;2023-03-14T16:37:34;95147.72;;;10.27;58.00
39141;BME280;24875;48.436;10.298;2023-03-14T16:40:00;95156.44;;;10.34;57.85
39141;BME280;24875;48.436;10.298;2023-03-14T16:42:28;95164.19;;;9.82;59.53
39141;BME280;24875;48.436;10.298;2023-03-14T16:44:54;95158.00;;;10.03;58.48
39141;BME280;24875;48.436;10.298;2023-03-14T16:47:21;95163.75;;;9.66;59.12
39141;BME280;24875;48.436;10.298;2023-03-14T16:49:47;95165.16;;;9.68;58.95
39141;BME280;24875;48.436;10.298;2023-03-14T16:52:14;95166.34;;;9.13;61.11
39141;BME280;24875;48.436;10.298;2023-03-14T16:54:40;95165.34;;;9.14;60.67
39141;BME280;24875;48.436;10.298;2023-03-14T16:57:07;95178.56;;;9.00;60.42
39141;BME280;24875;48.436;10.298;2023-03-14T16:59:35;95195.59;;;8.76;62.02
39141;BME280;24875;48.436;10.298;2023-03-14T17:02:01;95195.19;;;8.52;62.15
39141;BME280;24875;48.436;10.298;2023-03-14T17:04:28;95195.50;;;8.63;62.75
39141;BME280;24875;48.436;10.298;2023-03-14T17:06:55;95196.72;;;8.40;63.04
39141;BME280;24875;48.436;10.298;2023-03-14T17:09:21;95199.75;;;8.44;62.57
39141;BME280;24875;48.436;10.298;2023-03-14T17:11:48;95196.16;;;8.24;63.00
39141;BME280;24875;48.436;10.298;2023-03-14T17:14:14;95206.59;;;8.17;63.70
39141;BME280;24875;48.436;10.298;2023-03-14T17:16:42;95220.72;;;8.16;63.57
39141;BME280;24875;48.436;10.298;2023-03-14T17:19:09;95231.41;;;8.15;64.04
39141;BME280;24875;48.436;10.298;2023-03-14T17:21:36;95233.22;;;8.00;64.57
39141;BME280;24875;48.436;10.298;2023-03-14T17:24:02;95242.34;;;8.04;65.18
39141;BME280;24875;48.436;10.298;2023-03-14T17:26:29;95240.72;;;8.03;65.38
39141;BME280;24875;48.436;10.298;2023-03-14T17:28:55;95239.34;;;8.07;65.41
39141;BME280;24875;48.436;10.298;2023-03-14T17:31:22;95242.06;;;7.99;66.54
39141;BME280;24875;48.436;10.298;2023-03-14T17:33:50;95251.66;;;8.06;66.98
39141;BME280;24875;48.436;10.298;2023-03-14T17:36:17;95259.56;;;7.92;67.65
39141;BME280;24875;48.436;10.298;2023-03-14T17:38:43;95266.34;;;7.86;68.10
39141;BME280;24875;48.436;10.298;2023-03-14T17:41:12;95263.63;;;7.94;69.11
39141;BME280;24875;48.436;10.298;2023-03-14T17:43:39;95267.69;;;7.97;68.85
39141;BME280;24875;48.436;10.298;2023-03-14T17:46:07;95272.19;;;8.03;69.90
39141;BME280;24875;48.436;10.298;2023-03-14T17:48:35;95284.16;;;7.91;69.92
39141;BME280;24875;48.436;10.298;2023-03-14T17:51:04;95276.38;;;7.97;70.70
39141;BME280;24875;48.436;10.298;2023-03-14T17:53:30;95274.53;;;7.98;70.10
39141;BME280;24875;48.436;10.298;2023-03-14T17:55:57;95282.19;;;7.93;71.45
39141;BME280;24875;48.436;10.298;2023-03-14T17:58:24;95272.44;;;8.08;70.99
39141;BME280;24875;48.436;10.298;2023-03-14T18:00:51;95282.41;;;7.98;71.29
39141;BME280;24875;48.436;10.298;2023-03-14T18:03:17;95289.41;;;7.91;70.92
39141;BME280;24875;48.436;10.298;2023-03-14T18:05:44;95297.66;;;7.88;70.38
39141;BME280;24875;48.436;10.298;2023-03-14T18:08:13;95298.06;;;7.91;71.46
39141;BME280;24875;48.436;10.298;2023-03-14T18:10:40;95300.63;;;7.85;70.20
39141;BME280;24875;48.436;10.298;2023-03-14T18:13:07;95291.38;;;7.89;69.03
39141;BME280;24875;48.436;10.298;2023-03-14T18:15:34;95306.22;;;7.96;68.47
39141;BME280;24875;48.436;10.298;2023-03-14T18:18:00;95312.38;;;7.89;68.89
39141;BME280;24875;48.436;10.298;2023-03-14T18:20:27;95319.44;;;7.88;67.86
39141;BME280;24875;48.436;10.298;2023-03-14T18:22:53;95302.13;;;7.94;67.08
39141;BME280;24875;48.436;10.298;2023-03-14T18:25:21;95312.19;;;8.05;66.93
39141;BME280;24875;48.436;10.298;2023-03-14T18:27:48;95313.81;;;8.06;66.82
39141;BME280;24875;48.436;10.298;2023-03-14T18:30:15;95314.53;;;8.00;66.16
39141;BME280;24875;48.436;10.298;2023-03-14T18:32:44;95326.94;;;8.06;66.21
39141;BME280;24875;48.436;10.298;2023-03-14T18:35:10;95323.66;;;8.04;66.31
39141;BME280;24875;48.436;10.298;2023-03-14T18:37:37;95338.03;;;8.08;67.55
39141;BME280;24875;48.436;10.298;2023-03-14T18:40:04;95338.94;;;8.00;67.37
39141;BME280;24875;48.436;10.298;2023-03-14T18:42:35;95345.63;;;8.03;69.55
39141;BME280;24875;48.436;10.298;2023-03-14T18:45:01;95355.97;;;7.90;69.14
39141;BME280;24875;48.436;10.298;2023-03-14T18:47:28;95362.50;;;7.80;69.83
39141;BME280;24875;48.436;10.298;2023-03-14T18:49:54;95358.88;;;7.66;70.08
39141;BME280;24875;48.436;10.298;2023-03-14T18:52:20;95378.84;;;7.53;72.52
39141;BME280;24875;48.436;10.298;2023-03-14T18:54:47;95369.91;;;7.47;75.59
39141;BME280;24875;48.436;10.298;2023-03-14T18:57:13;95380.78;;;7.36;75.92
39141;BME280;24875;48.436;10.298;2023-03-14T18:59:41;95392.84;;;7.45;76.22
39141;BME280;24875;48.436;10.298;2023-03-14T19:02:08;95399.63;;;7.18;79.34
39141;BME280;24875;48.436;10.298;2023-03-14T19:04:35;95399.69;;;7.10;78.48
39141;BME280;24875;48.436;10.298;2023-03-14T19:07:02;95402.78;;;7.13;81.65
39141;BME280;24875;48.436;10.298;2023-03-14T19:09:28;95406.66;;;7.03;83.42
39141;BME280;24875;48.436;10.298;2023-03-14T19:11:55;95409.56;;;6.85;85.13
39141;BME280;24875;48.436;10.298;2023-03-14T19:14:22;95393.13;;;6.69;89.32
39141;BME280;24875;48.436;10.298;2023-03-14T19:16:50;95411.91;;;6.50;90.38
39141;BME280;24875;48.436;10.298;2023-03-14T19:19:16;95410.63;;;6.46;91.46
39141;BME280;24875;48.436;10.298;2023-03-14T19:21:43;95400.19;;;6.38;92.73
39141;BME280;24875;48.436;10.298;2023-03-14T19:24:11;95399.22;;;6.39;93.05
39141;BME280;24875;48.436;10.298;2023-03-14T19:26:42;95392.03;;;6.33;94.17
39141;BME280;24875;48.436;10.298;2023-03-14T19:29:08;95394.97;;;6.38;93.82
39141;BME280;24875;48.436;10.298;2023-03-14T19:31:35;95395.47;;;6.34;93.83
39141;BME280;24875;48.436;10.298;2023-03-14T19:34:03;95397.06;;;6.43;93.79
39141;BME280;24875;48.436;10.298;2023-03-14T19:36:31;95407.88;;;6.40;94.25
39141;BME280;24875;48.436;10.298;2023-03-14T19:38:59;95415.59;;;6.33;93.91
39141;BME280;24875;48.436;10.298;2023-03-14T19:41:27;95410.22;;;6.27;95.69
39141;BME280;24875;48.436;10.298;2023-03-14T19:43:54;95418.22;;;6.33;94.79
39141;BME280;24875;48.436;10.298;2023-03-14T19:46:21;95424.13;;;6.27;94.89
39141;BME280;24875;48.436;10.298;2023-03-14T19:48:48;95423.13;;;6.28;95.03
39141;BME280;24875;48.436;10.298;2023-03-14T19:51:20;95439.69;;;6.21;93.25
39141;BME280;24875;48.436;10.298;2023-03-14T19:53:47;95448.31;;;6.29;94.04
39141;BME280;24875;48.436;10.298;2023-03-14T19:56:14;95452.31;;;6.17;93.57
39141;BME280;24875;48.436;10.298;2023-03-14T19:58:40;95461.94;;;6.17;93.28
39141;BME280;24875;48.436;10.298;2023-03-14T20:01:08;95462.44;;;6.12;92.56
39141;BME280;24875;48.436;10.298;2023-03-14T20:03:36;95471.41;;;6.18;92.85
39141;BME280;24875;48.436;10.298;2023-03-14T20:06:04;95463.38;;;6.19;92.88
39141;BME280;24875;48.436;10.298;2023-03-14T20:08:32;95473.22;;;6.09;93.17
39141;BME280;24875;48.436;10.298;2023-03-14T20:10:58;95474.94;;;5.95;93.99
39141;BME280;24875;48.436;10.298;2023-03-14T20:13:25;95476.22;;;5.99;94.64
39141;BME280;24875;48.436;10.298;2023-03-14T20:15:51;95468.09;;;5.86;94.83
39141;BME280;24875;48.436;10.298;2023-03-14T20:18:18;95479.50;;;5.85;95.95
39141;BME280;24875;48.436;10.298;2023-03-14T20:20:47;95473.63;;;5.83;96.32
39141;BME280;24875;48.436;10.298;2023-03-14T20:23:14;95481.47;;;5.83;96.19
39141;BME280;24875;48.436;10.298;2023-03-14T20:25:42;95486.38;;;5.86;96.76
39141;BME280;24875;48.436;10.298;2023-03-14T20:28:10;95487.53;;;5.83;96.64
39141;BME280;24875;48.436;10.298;2023-03-14T20:30:37;95499.44;;;5.78;97.55
39141;BME280;24875;48.436;10.298;2023-03-14T20:33:03;95505.50;;;5.70;98.27
39141;BME280;24875;48.436;10.298;2023-03-14T20:35:30;95510.88;;;5.61;98.29
39141;BME280;24875;48.436;10.298;2023-03-14T20:37:57;95511.69;;;5.69;97.87
39141;BME280;24875;48.436;10.298;2023-03-14T20:40:24;95520.69;;;5.59;98.22
39141;BME280;24875;48.436;10.298;2023-03-14T20:42:54;95520.69;;;5.59;98.63
39141;BME280;24875;48.436;10.298;2023-03-14T20:45:20;95515.31;;;5.52;98.32
39141;BME280;24875;48.436;10.298;2023-03-14T20:47:47;95517.25;;;5.50;99.11
39141;BME280;24875;48.436;10.298;2023-03-14T20:50:13;95518.41;;;5.48;99.34
39141;BME280;24875;48.436;10.298;2023-03-14T20:52:40;95518.38;;;5.56;99.01
39141;BME280;24875;48.436;10.298;2023-03-14T20:55:08;95512.22;;;5.41;99.35
39141;BME280;24875;48.436;10.298;2023-03-14T20:57:34;95513.31;;;5.54;98.20
39141;BME280;24875;48.436;10.298;2023-03-14T21:00:02;95511.56;;;5.55;98.34
39141;BME280;24875;48.436;10.298;2023-03-14T21:02:32;95517.91;;;5.60;97.69
39141;BME280;24875;48.436;10.298;2023-03-14T21:05:00;95521.81;;;5.48;98.06
39141;BME280;24875;48.436;10.298;2023-03-14T21:07:28;95527.22;;;5.47;97.62
39141;BME280;24875;48.436;10.298;2023-03-14T21:09:55;95527.38;;;5.53;97.34
39141;BME280;24875;48.436;10.298;2023-03-14T21:12:21;95531.13;;;5.51;97.66
39141;BME280;24875;48.436;10.298;2023-03-14T21:14:48;95532.44;;;5.47;97.44
39141;BME280;24875;48.436;10.298;2023-03-14T21:17:16;95526.88;;;5.58;97.20
39141;BME280;24875;48.436;10.298;2023-03-14T21:19:42;95534.56;;;5.51;96.69
39141;BME280;24875;48.436;10.298;2023-03-14T21:22:09;95525.59;;;5.46;97.11
39141;BME280;24875;48.436;10.298;2023-03-14T21:24:43;95536.69;;;5.40;96.97
39141;BME280;24875;48.436;10.298;2023-03-14T21:27:09;95531.44;;;5.56;95.48
39141;BME280;24875;48.436;10.298;2023-03-14T21:29:37;95541.28;;;5.46;95.85
39141;BME280;24875;48.436;10.298;2023-03-14T21:32:03;95534.75;;;5.50;95.58
39141;BME280;24875;48.436;10.298;2023-03-14T21:34:31;95526.41;;;5.46;96.04
39141;BME280;24875;48.436;10.298;2023-03-14T21:36:58;95533.75;;;5.43;95.77
39141;BME280;24875;48.436;10.298;2023-03-14T21:39:25;95538.31;;;5.41;95.10
39141;BME280;24875;48.436;10.298;2023-03-14T21:41:51;95549.41;;;5.35;95.36
39141;BME280;24875;48.436;10.298;2023-03-14T21:44:18;95545.81;;;5.28;96.40
39141;BME280;24875;48.436;10.298;2023-03-14T21:46:46;95542.72;;;5.33;96.25
39141;BME280;24875;48.436;10.298;2023-03-14T21:49:13;95541.59;;;5.35;95.70
39141;BME280;24875;48.436;10.298;2023-03-14T21:51:42;95538.63;;;5.38;96.02
39141;BME280;24875;48.436;10.298;2023-03-14T21:54:10;95554.00;;;5.41;95.41
39141;BME280;24875;48.436;10.298;2023-03-14T21:56:40;95553.84;;;5.35;95.22
39141;BME280;24875;48.436;10.298;2023-03-14T21:59:08;95549.59;;;5.26;96.81
39141;BME280;24875;48.436;10.298;2023-03-14T22:01:35;95561.16;;;5.23;96.17
39141;BME280;24875;48.436;10.298;2023-03-14T22:04:02;95544.81;;;5.29;96.09
39141;BME280;24875;48.436;10.298;2023-03-14T22:06:29;95551.00;;;5.12;96.51
39141;BME280;24875;48.436;10.298;2023-03-14T22:08:57;95557.25;;;5.35;96.33
39141;BME280;24875;48.436;10.298;2023-03-14T22:11:23;95556.75;;;5.32;96.00
39141;BME280;24875;48.436;10.298;2023-03-14T22:13:50;95553.66;;;5.36;96.43
39141;BME280;24875;48.436;10.298;2023-03-14T22:16:17;95549.41;;;5.35;96.29
39141;BME280;24875;48.436;10.298;2023-03-14T22:18:43;95557.59;;;5.40;95.89
39141;BME280;24875;48.436;10.298;2023-03-14T22:21:10;95548.91;;;5.32;96.60
39141;BME280;24875;48.436;10.298;2023-03-14T22:23:37;95549.88;;;5.31;96.41
39141;BME280;24875;48.436;10.298;2023-03-14T22:26:05;95564.78;;;5.46;95.95
39141;BME280;24875;48.436;10.298;2023-03-14T22:28:31;95562.47;;;5.43;96.29
39141;BME280;24875;48.436;10.298;2023-03-14T22:30:58;95560.19;;;5.48;95.81
39141;BME280;24875;48.436;10.298;2023-03-14T22:33:24;95571.63;;;5.39;97.59
39141;BME280;24875;48.436;10.298;2023-03-14T22:35:51;95574.25;;;5.55;97.68
39141;BME280;24875;48.436;10.298;2023-03-14T22:38:18;95594.78;;;5.18;99.39
39141;BME280;24875;48.436;10.298;2023-03-14T22:40:45;95581.22;;;5.23;100.00
39141;BME280;24875;48.436;10.298;2023-03-14T22:43:13;95584.97;;;5.12;100.00
39141;BME280;24875;48.436;10.298;2023-03-14T22:45:40;95603.53;;;5.01;100.00
39141;BME280;24875;48.436;10.298;2023-03-14T22:48:06;95606.56;;;4.81;100.00
39141;BME280;24875;48.436;10.298;2023-03-14T22:50:33;95602.56;;;4.61;100.00
39141;BME280;24875;48.436;10.298;2023-03-14T22:52:59;95609.97;;;4.40;100.00
39141;BME280;24875;48.436;10.298;2023-03-14T22:55:27;95605.94;;;4.21;100.00
39141;BME280;24875;48.436;10.298;2023-03-14T22:57:54;95627.38;;;3.89;100.00
39141;BME280;24875;48.436;10.298;2023-03-14T23:00:23;95624.41;;;3.84;100.00
39141;BME280;24875;48.436;10.298;2023-03-14T23:02:51;95617.22;;;3.78;100.00
39141;BME280;24875;48.436;10.298;2023-03-14T23:05:17;95622.97;;;3.64;100.00
39141;BME280;24875;48.436;10.298;2023-03-14T23:07:44;95617.59;;;3.49;100.00
39141;BME280;24875;48.436;10.298;2023-03-14T23:10:11;95607.41;;;3.38;100.00
39141;BME280;24875;48.436;10.298;2023-03-14T23:12:37;95603.22;;;3.62;100.00
39141;BME280;24875;48.436;10.298;2023-03-14T23:15:04;95598.84;;;3.62;100.00
39141;BME280;24875;48.436;10.298;2023-03-14T23:17:34;95606.53;;;3.64;100.00
39141;BME280;24875;48.436;10.298;2023-03-14T23:20:00;95600.34;;;3.48;100.00
39141;BME280;24875;48.436;10.298;2023-03-14T23:22:30;95593.81;;;3.44;100.00
39141;BME280;24875;48.436;10.298;2023-03-14T23:24:58;95595.16;;;3.48;100.00
39141;BME280;24875;48.436;10.298;2023-03-14T23:27:25;95595.63;;;3.51;100.00
39141;BME280;24875;48.436;10.298;2023-03-14T23:29:51;95592.53;;;3.48;100.00
39141;BME280;24875;48.436;10.298;2023-03-14T23:32:18;95588.28;;;3.47;100.00
39141;BME280;24875;48.436;10.298;2023-03-14T23:34:45;95585.75;;;3.55;100.00
39141;BME280;24875;48.436;10.298;2023-03-14T23:37:12;95591.53;;;3.49;100.00
39141;BME280;24875;48.436;10.298;2023-03-14T23:39:39;95583.16;;;3.55;100.00
39141;BME280;24875;48.436;10.298;2023-03-14T23:42:06;95570.53;;;3.67;100.00
39141;BME280;24875;48.436;10.298;2023-03-14T23:44:32;95565.66;;;3.64;100.00
39141;BME280;24875;48.436;10.298;2023-03-14T23:46:59;95572.19;;;3.68;100.00
39141;BME280;24875;48.436;10.298;2023-03-14T23:49:25;95579.78;;;3.79;100.00
39141;BME280;24875;48.436;10.298;2023-03-14T23:51:53;95572.59;;;3.81;100.00
39141;BME280;24875;48.436;10.298;2023-03-14T23:54:20;95576.13;;;3.72;100.00
39141;BME280;24875;48.436;10.298;2023-03-14T23:56:46;95574.78;;;3.86;100.00
39141;BME280;24875;48.436;10.298;2023-03-14T23:59:13;95581.59;;;3.87;100.00
